Time;durP1;ratioP1;P1;durP2;ratioP2;P2;SDS_P1;SDS_P2;PMS_P1;PMS_P2;Temp;Humidity;BMP_temperature;BMP_pressure;BME280_temperature;BME280_humidity;BME280_pressure;Samples;Min_cycle;Max_cycle;Signal;HPM_P1;HPM_P2
2021/08/02 00:01:48;;;;;;;;;;;24.90;49.30;;;;;;1560237;75;787;-73
2021/08/02 00:03:51;;;;;;;;;;;25.00;49.30;;;;;;1554644;75;700;-76
2021/08/02 00:05:54;;;;;;;;;;;24.90;49.30;;;;;;1554619;75;1162;-76
2021/08/02 00:07:57;;;;;;;;;;;25.00;49.20;;;;;;1569934;75;712;-75
2021/08/02 00:09:59;;;;;;;;;;;24.90;49.20;;;;;;1555458;75;812;-73
2021/08/02 00:12:06;;;;;;;;;;;24.90;49.30;;;;;;1553934;75;706;-74
2021/08/02 00:14:08;;;;;;;;;;;25.00;49.20;;;;;;1554448;75;747;-74
2021/08/02 00:16:10;;;;;;;;;;;25.00;49.20;;;;;;1551446;75;1155;-73
2021/08/02 00:18:12;;;;;;;;;;;25.00;49.10;;;;;;1557737;75;808;-74
2021/08/02 00:20:15;;;;;;;;;;;25.00;49.00;;;;;;1550750;75;1939;-74
2021/08/02 00:22:17;;;;;;;;;;;25.00;49.00;;;;;;1558904;75;743;-76
2021/08/02 00:24:19;;;;;;;;;;;25.00;48.90;;;;;;1560914;75;767;-76
2021/08/02 00:26:21;;;;;;;;;;;25.00;48.90;;;;;;1560594;75;1122;-75
2021/08/02 00:28:23;;;;;;;;;;;25.10;48.90;;;;;;1563058;75;722;-75
2021/08/02 00:30:25;;;;;;;;;;;25.00;48.80;;;;;;1568008;75;705;-75
2021/08/02 00:32:27;;;;;;;;;;;25.10;48.60;;;;;;1553756;75;722;-75
2021/08/02 00:34:28;;;;;;;;;;;25.10;48.60;;;;;;1552056;75;1084;-75
2021/08/02 00:36:32;;;;;;;;;;;25.10;48.60;;;;;;1553825;75;1144;-75
2021/08/02 00:38:35;;;;;;;;;;;25.10;48.60;;;;;;1554312;75;796;-75
2021/08/02 00:40:39;;;;;;;;;;;25.10;48.60;;;;;;1569911;75;1928;-75
2021/08/02 00:42:42;;;;;;;;;;;25.10;48.60;;;;;;1549081;75;786;-75
2021/08/02 00:44:57;;;;;;;;;;;25.00;48.60;;;;;;1560058;75;1719;-77
2021/08/02 00:47:02;;;;;;;;;;;25.00;48.70;;;;;;1560458;75;709;-75
2021/08/02 00:49:05;;;;;;;;;;;24.90;48.80;;;;;;1555368;75;1162;-75
2021/08/02 00:51:07;;;;;;;;;;;25.00;48.80;;;;;;1564187;75;837;-75
2021/08/02 00:53:10;;;;;;;;;;;25.00;48.90;;;;;;1550979;75;787;-76
2021/08/02 00:55:12;;;;;;;;;;;25.00;48.90;;;;;;1553216;75;1229;-75
2021/08/02 00:57:14;;;;;;;;;;;25.00;48.80;;;;;;1553048;75;736;-75
2021/08/02 00:59:16;;;;;;;;;;;25.00;48.70;;;;;;1550278;75;1940;-76
2021/08/02 01:01:18;;;;;;;;;;;25.00;48.70;;;;;;1561008;75;740;-78
2021/08/02 01:03:20;;;;;;;;;;;25.00;48.70;;;;;;1549755;75;692;-75
2021/08/02 01:05:21;;;;;;;;;;;25.00;48.70;;;;;;1555726;75;1150;-75
2021/08/02 01:07:23;;;;;;;;;;;25.00;48.60;;;;;;1554355;75;731;-74
2021/08/02 01:09:25;;;;;;;;;;;25.00;48.60;;;;;;1552490;75;676;-75
2021/08/02 01:11:27;;;;;;;;;;;25.00;48.60;;;;;;1562260;75;623;-75
2021/08/02 01:13:30;;;;;;;;;;;25.00;48.50;;;;;;1555557;75;688;-75
2021/08/02 01:15:32;;;;;;;;;;;25.00;48.40;;;;;;1560285;75;1158;-74
2021/08/02 01:17:33;;;;;;;;;;;25.00;48.50;;;;;;1560903;75;638;-75
2021/08/02 01:19:35;;;;;;;;;;;25.10;48.40;;;;;;1559463;75;1941;-76
2021/08/02 01:21:38;;;;;;;;;;;25.10;48.40;;;;;;1554125;75;554;-76
2021/08/02 01:23:40;;;;;;;;;;;25.00;48.40;;;;;;1553325;75;733;-78
2021/08/02 01:25:44;;;;;;;;;;;25.00;48.40;;;;;;1557509;75;1158;-77
2021/08/02 01:27:46;;;;;;;;;;;25.00;48.40;;;;;;1563050;75;699;-76
2021/08/02 01:30:06;;;;;;;;;;;25.00;48.40;;;;;;1550574;75;651;-78
2021/08/02 01:32:08;;;;;;;;;;;25.00;48.40;;;;;;1563407;75;693;-75
2021/08/02 01:34:10;;;;;;;;;;;25.00;48.50;;;;;;1559629;75;659;-73
2021/08/02 01:36:12;;;;;;;;;;;24.90;48.50;;;;;;1558413;75;1157;-73
2021/08/02 01:38:14;;;;;;;;;;;24.90;48.40;;;;;;1562764;75;695;-75
2021/08/02 01:40:16;;;;;;;;;;;25.00;48.30;;;;;;1551862;75;1940;-74
2021/08/02 01:42:18;;;;;;;;;;;25.00;48.20;;;;;;1559167;75;744;-72
2021/08/02 01:44:20;;;;;;;;;;;25.00;48.20;;;;;;1551520;75;704;-72
2021/08/02 01:46:26;;;;;;;;;;;25.00;48.10;;;;;;1553500;73;224096;-74
2021/08/02 01:48:48;;;;;;;;;;;25.00;48.10;;;;;;1572730;73;754;-75
2021/08/02 01:51:00;;;;;;;;;;;25.00;48.00;;;;;;1599213;73;1961;-75
2021/08/02 01:53:04;;;;;;;;;;;24.90;48.10;;;;;;1576192;74;726;-75
2021/08/02 01:55:18;;;;;;;;;;;24.90;48.10;;;;;;1548176;73;1808;-74
2021/08/02 01:57:31;;;;;;;;;;;24.90;48.10;;;;;;1578144;73;782;-74
2021/08/02 01:59:37;;;;;;;;;;;24.90;48.10;;;;;;1539059;76;1933;-75
2021/08/02 02:01:43;;;;;;;;;;;24.90;48.10;;;;;;1578674;73;690;-73
2021/08/02 02:03:45;;;;;;;;;;;24.90;48.10;;;;;;1569687;74;699;-74
2021/08/02 02:05:49;;;;;;;;;;;24.90;48.10;;;;;;1580378;75;1143;-74
2021/08/02 02:07:52;;;;;;;;;;;24.90;48.10;;;;;;1579098;73;969;-73
2021/08/02 02:09:54;;;;;;;;;;;24.90;48.10;;;;;;1571488;73;936;-78
2021/08/02 02:11:56;;;;;;;;;;;24.90;48.00;;;;;;1594694;73;821;-76
2021/08/02 02:13:59;;;;;;;;;;;24.90;48.10;;;;;;1590974;73;817;-76
2021/08/02 02:16:01;;;;;;;;;;;24.90;48.10;;;;;;1581300;73;1154;-78
2021/08/02 02:18:03;;;;;;;;;;;24.90;48.00;;;;;;1577118;73;668;-74
2021/08/02 02:20:05;;;;;;;;;;;24.90;48.00;;;;;;1586614;73;1921;-74
2021/08/02 02:22:07;;;;;;;;;;;24.90;48.00;;;;;;1567712;73;759;-74
2021/08/02 02:24:09;;;;;;;;;;;24.80;47.90;;;;;;1598764;73;644;-75
2021/08/02 02:26:11;;;;;;;;;;;24.90;48.10;;;;;;1581283;74;1195;-77
2021/08/02 02:28:13;;;;;;;;;;;24.90;48.10;;;;;;1570008;75;748;-73
2021/08/02 02:30:15;;;;;;;;;;;24.90;48.10;;;;;;1589839;74;766;-79
2021/08/02 02:32:17;;;;;;;;;;;24.90;48.10;;;;;;1588680;74;766;-73
2021/08/02 02:34:19;;;;;;;;;;;24.90;48.10;;;;;;1580587;73;940;-74
2021/08/02 02:36:21;;;;;;;;;;;24.90;48.10;;;;;;1595656;74;1147;-74
2021/08/02 02:38:22;;;;;;;;;;;24.90;48.10;;;;;;1570331;74;767;-78
2021/08/02 02:40:24;;;;;;;;;;;24.90;48.00;;;;;;1560388;75;1954;-74
2021/08/02 02:42:26;;;;;;;;;;;25.00;48.00;;;;;;1549034;75;793;-77
2021/08/02 02:44:28;;;;;;;;;;;25.00;47.90;;;;;;1603985;73;776;-73
2021/08/02 02:46:30;;;;;;;;;;;25.00;47.90;;;;;;1587689;73;1102;-73
2021/08/02 02:48:32;;;;;;;;;;;25.00;47.90;;;;;;1588141;73;692;-76
2021/08/02 02:50:34;;;;;;;;;;;25.00;47.90;;;;;;1607931;73;729;-76
2021/08/02 02:52:36;;;;;;;;;;;25.00;47.90;;;;;;1593364;73;632;-75
2021/08/02 02:54:38;;;;;;;;;;;25.00;47.90;;;;;;1595370;73;769;-76
2021/08/02 02:56:39;;;;;;;;;;;25.00;47.90;;;;;;1574387;73;1163;-76
2021/08/02 02:58:41;;;;;;;;;;;25.00;47.90;;;;;;1580923;73;773;-75
2021/08/02 03:00:44;;;;;;;;;;;25.00;47.90;;;;;;1579395;73;1940;-80
2021/08/02 03:02:45;;;;;;;;;;;24.90;48.00;;;;;;1599475;73;761;-76
2021/08/02 03:04:48;;;;;;;;;;;24.90;48.00;;;;;;1580259;73;730;-75
2021/08/02 03:06:50;;;;;;;;;;;24.90;47.90;;;;;;1571294;74;1103;-77
2021/08/02 03:08:51;;;;;;;;;;;24.90;47.90;;;;;;1552702;74;796;-73
2021/08/02 03:10:53;;;;;;;;;;;24.80;47.90;;;;;;1578996;73;809;-71
2021/08/02 03:12:55;;;;;;;;;;;24.80;47.80;;;;;;1564325;74;788;-71
2021/08/02 03:14:57;;;;;;;;;;;24.80;47.80;;;;;;1597599;73;805;-75
2021/08/02 03:16:59;;;;;;;;;;;24.80;47.80;;;;;;1590012;73;1145;-74
2021/08/02 03:19:01;;;;;;;;;;;24.80;47.80;;;;;;1562915;74;717;-74
2021/08/02 03:21:03;;;;;;;;;;;24.80;47.80;;;;;;1582460;73;1926;-75
2021/08/02 03:23:07;;;;;;;;;;;24.80;47.80;;;;;;1559263;74;725;-75
2021/08/02 03:25:13;;;;;;;;;;;24.80;47.70;;;;;;1571525;74;1162;-75
2021/08/02 03:27:26;;;;;;;;;;;24.80;47.80;;;;;;1593725;72;724;-75
2021/08/02 03:29:32;;;;;;;;;;;24.80;47.80;;;;;;1593729;72;763;-74
2021/08/02 03:31:38;;;;;;;;;;;24.80;47.80;;;;;;1598669;72;1444;-76
2021/08/02 03:33:41;;;;;;;;;;;24.80;47.80;;;;;;1599841;72;994;-74
2021/08/02 03:35:43;;;;;;;;;;;24.70;47.70;;;;;;1609786;72;1104;-75
2021/08/02 03:37:45;;;;;;;;;;;24.70;47.80;;;;;;1604935;72;792;-73
2021/08/02 03:39:47;;;;;;;;;;;24.70;47.80;;;;;;1622352;72;728;-75
2021/08/02 03:41:49;;;;;;;;;;;24.80;47.80;;;;;;1611220;72;1942;-75
2021/08/02 03:43:51;;;;;;;;;;;24.80;47.70;;;;;;1607090;72;814;-74
2021/08/02 03:45:53;;;;;;;;;;;24.80;47.70;;;;;;1597659;72;1134;-76
2021/08/02 03:47:55;;;;;;;;;;;24.70;47.70;;;;;;1594634;72;773;-74
2021/08/02 03:49:57;;;;;;;;;;;24.70;47.70;;;;;;1596436;72;779;-76
2021/08/02 03:51:59;;;;;;;;;;;24.70;47.60;;;;;;1603448;72;718;-74
2021/08/02 03:54:01;;;;;;;;;;;24.70;47.60;;;;;;1591232;73;1268;-76
2021/08/02 03:56:03;;;;;;;;;;;24.70;47.60;;;;;;1592714;72;1176;-74
2021/08/02 03:58:06;;;;;;;;;;;24.70;47.60;;;;;;1590808;72;800;-78
2021/08/02 04:00:08;;;;;;;;;;;24.70;47.60;;;;;;1593072;72;727;-75
2021/08/02 04:02:10;;;;;;;;;;;24.70;47.60;;;;;;1591290;72;1939;-74
2021/08/02 04:04:11;;;;;;;;;;;24.70;47.60;;;;;;1593270;72;756;-78
2021/08/02 04:06:13;;;;;;;;;;;24.70;47.60;;;;;;1597875;72;1192;-75
2021/08/02 04:08:15;;;;;;;;;;;24.80;47.60;;;;;;1595251;72;701;-77
2021/08/02 04:10:17;;;;;;;;;;;24.70;47.60;;;;;;1601716;72;751;-75
2021/08/02 04:12:19;;;;;;;;;;;24.80;47.60;;;;;;1611642;72;707;-74
2021/08/02 04:14:21;;;;;;;;;;;24.70;47.60;;;;;;1601232;72;713;-77
2021/08/02 04:16:23;;;;;;;;;;;24.80;47.60;;;;;;1620163;72;1113;-78
2021/08/02 04:18:25;;;;;;;;;;;24.80;47.60;;;;;;1622462;72;782;-77
2021/08/02 04:20:26;;;;;;;;;;;24.80;47.50;;;;;;1596340;72;1971;-76
2021/08/02 04:22:28;;;;;;;;;;;24.80;47.40;;;;;;1597728;72;741;-75
2021/08/02 04:24:30;;;;;;;;;;;24.80;47.40;;;;;;1605131;72;873;-76
2021/08/02 04:26:32;;;;;;;;;;;24.80;47.50;;;;;;1603006;72;1112;-75
2021/08/02 04:28:34;;;;;;;;;;;24.80;47.50;;;;;;1619223;72;731;-74
2021/08/02 04:30:36;;;;;;;;;;;24.80;47.50;;;;;;1606597;72;770;-78
2021/08/02 04:32:39;;;;;;;;;;;24.70;47.50;;;;;;1601162;72;660;-76
2021/08/02 04:34:41;;;;;;;;;;;24.70;47.60;;;;;;1595480;72;983;-78
2021/08/02 04:36:43;;;;;;;;;;;24.70;47.60;;;;;;1610118;72;1126;-77
2021/08/02 04:38:45;;;;;;;;;;;24.70;47.60;;;;;;1603815;72;734;-75
2021/08/02 04:40:47;;;;;;;;;;;24.70;47.60;;;;;;1599189;72;1937;-77
2021/08/02 04:42:49;;;;;;;;;;;24.70;47.60;;;;;;1610885;72;888;-74
2021/08/02 04:44:51;;;;;;;;;;;24.70;47.50;;;;;;1608978;72;821;-74
2021/08/02 04:46:54;;;;;;;;;;;24.70;47.50;;;;;;1610293;72;1069;-73
2021/08/02 04:48:56;;;;;;;;;;;24.70;47.60;;;;;;1619986;72;780;-75
2021/08/02 04:50:58;;;;;;;;;;;24.70;47.60;;;;;;1621707;72;726;-76
2021/08/02 04:53:00;;;;;;;;;;;24.70;47.60;;;;;;1621015;72;736;-74
2021/08/02 04:55:02;;;;;;;;;;;24.70;47.60;;;;;;1613066;72;1181;-74
2021/08/02 04:57:04;;;;;;;;;;;24.60;47.40;;;;;;1599758;72;685;-77
2021/08/02 04:59:06;;;;;;;;;;;24.60;47.40;;;;;;1619961;72;768;-73
2021/08/02 05:01:07;;;;;;;;;;;24.60;47.50;;;;;;1599418;72;1925;-72
2021/08/02 05:03:10;;;;;;;;;;;24.70;47.60;;;;;;1594573;72;784;-73
2021/08/02 05:05:12;;;;;;;;;;;24.60;47.50;;;;;;1624120;72;1127;-75
2021/08/02 05:07:14;;;;;;;;;;;24.60;47.50;;;;;;1618671;72;736;-74
2021/08/02 05:09:16;;;;;;;;;;;24.60;47.60;;;;;;1616466;72;683;-74
2021/08/02 05:11:17;;;;;;;;;;;24.60;47.60;;;;;;1613645;72;640;-74
2021/08/02 05:13:19;;;;;;;;;;;24.60;47.50;;;;;;1620711;72;765;-75
2021/08/02 05:15:21;;;;;;;;;;;24.60;47.60;;;;;;1602984;72;1132;-76
2021/08/02 05:17:23;;;;;;;;;;;24.60;47.60;;;;;;1629968;72;726;-81
2021/08/02 05:19:25;;;;;;;;;;;24.60;47.60;;;;;;1620233;72;725;-72
2021/08/02 05:21:27;;;;;;;;;;;24.60;47.60;;;;;;1603225;72;1932;-75
2021/08/02 05:23:29;;;;;;;;;;;24.70;47.80;;;;;;1596941;72;752;-74
2021/08/02 05:25:30;;;;;;;;;;;24.70;47.80;;;;;;1598015;72;1129;-76
2021/08/02 05:27:33;;;;;;;;;;;24.60;47.60;;;;;;1593020;72;599;-78
2021/08/02 05:29:35;;;;;;;;;;;24.70;47.80;;;;;;1599211;72;752;-77
2021/08/02 05:31:36;;;;;;;;;;;24.70;47.80;;;;;;1591618;72;738;-70
2021/08/02 05:33:38;;;;;;;;;;;24.70;47.70;;;;;;1600993;72;902;-72
2021/08/02 05:35:40;;;;;;;;;;;24.80;47.10;;;;;;1593860;72;1134;-69
2021/08/02 05:37:42;;;;;;;;;;;24.70;46.30;;;;;;1604081;72;766;-69
2021/08/02 05:39:44;;;;;;;;;;;24.60;45.90;;;;;;1606444;72;800;-69
2021/08/02 05:41:46;;;;;;;;;;;24.70;45.90;;;;;;1606907;72;1931;-73
2021/08/02 05:43:48;;;;;;;;;;;24.50;45.50;;;;;;1618188;72;789;-69
2021/08/02 05:45:50;;;;;;;;;;;24.60;45.50;;;;;;1609778;72;1150;-70
2021/08/02 05:47:52;;;;;;;;;;;24.50;45.50;;;;;;1599601;72;804;-70
2021/08/02 05:49:54;;;;;;;;;;;24.50;45.40;;;;;;1615572;72;795;-69
2021/08/02 05:51:58;;;;;;;;;;;24.50;45.40;;;;;;1618784;72;787;-67
2021/08/02 05:54:00;;;;;;;;;;;24.40;45.30;;;;;;1615000;72;1492;-70
2021/08/02 05:56:02;;;;;;;;;;;24.40;45.20;;;;;;1605001;72;1190;-67
2021/08/02 05:58:04;;;;;;;;;;;24.40;45.20;;;;;;1603964;72;712;-68
2021/08/02 06:00:06;;;;;;;;;;;24.40;45.20;;;;;;1614434;72;707;-68
2021/08/02 06:02:08;;;;;;;;;;;24.30;45.20;;;;;;1628278;72;1923;-66
2021/08/02 06:04:10;;;;;;;;;;;24.40;45.20;;;;;;1624040;72;737;-67
2021/08/02 06:06:12;;;;;;;;;;;24.30;45.30;;;;;;1611933;72;1171;-69
2021/08/02 06:08:14;;;;;;;;;;;24.30;45.20;;;;;;1605143;72;808;-68
2021/08/02 06:10:15;;;;;;;;;;;24.30;45.30;;;;;;1621977;72;839;-68
2021/08/02 06:12:18;;;;;;;;;;;24.30;45.30;;;;;;1615936;72;774;-68
2021/08/02 06:14:20;;;;;;;;;;;24.30;45.30;;;;;;1602790;72;1116;-68
2021/08/02 06:16:22;;;;;;;;;;;24.30;45.30;;;;;;1623173;72;1148;-67
2021/08/02 06:18:24;;;;;;;;;;;24.30;45.30;;;;;;1619822;72;777;-67
2021/08/02 06:20:26;;;;;;;;;;;24.40;45.30;;;;;;1604012;72;770;-69
2021/08/02 06:22:28;;;;;;;;;;;24.30;45.40;;;;;;1607119;72;1940;-69
2021/08/02 06:24:49;;;;;;;;;;;24.30;45.50;;;;;;1599966;72;809;-70
2021/08/02 06:26:51;;;;;;;;;;;24.40;45.90;;;;;;1575082;73;685;-57
2021/08/02 06:28:53;;;;;;;;;;;24.20;45.50;;;;;;1562730;73;875;-58
2021/08/02 06:30:55;;;;;;;;;;;24.30;45.60;;;;;;1562869;73;750;-59
2021/08/02 06:32:57;;;;;;;;;;;24.20;45.50;;;;;;1567320;73;1160;-58
2021/08/02 06:34:59;;;;;;;;;;;24.20;45.50;;;;;;1585480;73;734;-58
2021/08/02 06:37:01;;;;;;;;;;;24.20;45.50;;;;;;1591704;73;752;-58
2021/08/02 06:39:02;;;;;;;;;;;24.20;45.50;;;;;;1595176;73;715;-57
2021/08/02 06:41:04;;;;;;;;;;;24.30;45.70;;;;;;1576693;73;752;-58
2021/08/02 06:43:06;;;;;;;;;;;24.30;45.80;;;;;;1582897;73;1936;-58
2021/08/02 06:45:09;;;;;;;;;;;24.30;45.80;;;;;;1584226;73;705;-59
2021/08/02 06:47:11;;;;;;;;;;;24.30;45.80;;;;;;1592658;73;749;-59
2021/08/02 06:49:12;;;;;;;;;;;24.30;45.80;;;;;;1617312;72;790;-59
2021/08/02 06:51:14;;;;;;;;;;;24.30;45.80;;;;;;1566984;74;766;-59
2021/08/02 06:53:18;;;;;;;;;;;24.30;45.80;;;;;;1602230;73;1087;-59
2021/08/02 06:55:20;;;;;;;;;;;24.30;45.80;;;;;;1592508;73;686;-57
2021/08/02 06:57:22;;;;;;;;;;;24.20;45.70;;;;;;1589482;73;876;-57
2021/08/02 06:59:24;;;;;;;;;;;24.20;45.70;;;;;;1592277;73;730;-57
2021/08/02 07:01:26;;;;;;;;;;;24.30;45.80;;;;;;1606377;73;1937;-58
2021/08/02 07:03:27;;;;;;;;;;;24.20;45.70;;;;;;1585060;73;1178;-59
2021/08/02 07:05:29;;;;;;;;;;;24.20;45.70;;;;;;1591485;73;683;-59
2021/08/02 07:07:31;;;;;;;;;;;24.20;45.60;;;;;;1596455;73;770;-58
2021/08/02 07:09:33;;;;;;;;;;;24.20;45.60;;;;;;1590305;73;793;-58
2021/08/02 07:11:35;;;;;;;;;;;24.20;45.60;;;;;;1589672;73;658;-59
2021/08/02 07:13:37;;;;;;;;;;;24.30;45.70;;;;;;1586952;73;1146;-59
2021/08/02 07:15:39;;;;;;;;;;;24.20;45.70;;;;;;1596891;73;865;-59
2021/08/02 07:17:41;;;;;;;;;;;24.20;45.60;;;;;;1598141;73;780;-59
2021/08/02 07:19:42;;;;;;;;;;;24.20;45.60;;;;;;1594829;73;784;-59
2021/08/02 07:21:44;;;;;;;;;;;24.20;45.70;;;;;;1594170;73;2045;-59
2021/08/02 07:23:46;;;;;;;;;;;24.20;45.70;;;;;;1599826;73;1116;-58
2021/08/02 07:25:48;;;;;;;;;;;24.20;45.70;;;;;;1577466;73;808;-58
2021/08/02 07:27:50;;;;;;;;;;;24.20;45.70;;;;;;1598500;73;726;-59
2021/08/02 07:29:52;;;;;;;;;;;24.20;45.70;;;;;;1606906;73;758;-59
2021/08/02 07:31:54;;;;;;;;;;;24.20;45.70;;;;;;1593439;73;1151;-58
2021/08/02 07:33:56;;;;;;;;;;;24.20;45.70;;;;;;1598133;73;717;-58
2021/08/02 07:35:59;;;;;;;;;;;24.20;45.70;;;;;;1587135;73;712;-59
2021/08/02 07:38:01;;;;;;;;;;;24.20;45.70;;;;;;1590963;73;705;-59
2021/08/02 07:40:03;;;;;;;;;;;24.20;45.80;;;;;;1600545;73;733;-59
2021/08/02 07:42:05;;;;;;;;;;;24.20;46.20;;;;;;1576718;73;1916;-57
2021/08/02 07:44:07;;;;;;;;;;;24.20;46.50;;;;;;1592636;73;790;-59
2021/08/02 07:46:10;;;;;;;;;;;24.40;46.50;;;;;;1588932;73;773;-58
2021/08/02 07:48:12;;;;;;;;;;;24.40;46.20;;;;;;1581337;73;220142;-74
2021/08/02 07:50:15;;;;;;;;;;;24.50;46.10;;;;;;1601436;73;646;-74
2021/08/02 07:52:17;;;;;;;;;;;24.50;46.00;;;;;;1555019;74;843;-73
2021/08/02 07:54:19;;;;;;;;;;;24.40;45.90;;;;;;1560826;74;1191;-73
2021/08/02 07:56:21;;;;;;;;;;;24.50;45.80;;;;;;1555291;74;737;-75
2021/08/02 07:58:23;;;;;;;;;;;24.50;45.70;;;;;;1589135;73;745;-76
2021/08/02 08:00:25;;;;;;;;;;;24.50;45.60;;;;;;1582991;73;735;-74
2021/08/02 08:02:27;;;;;;;;;;;24.60;45.70;;;;;;1544132;74;222588;-63
2021/08/02 08:04:28;;;;;;;;;;;24.60;45.70;;;;;;1528367;76;772;-63
2021/08/02 08:06:30;;;;;;;;;;;24.60;45.60;;;;;;1517782;76;765;-63
2021/08/02 08:08:32;;;;;;;;;;;24.60;45.20;;;;;;1525332;76;845;-63
2021/08/02 08:10:34;;;;;;;;;;;24.70;45.40;;;;;;1531031;76;776;-63
2021/08/02 08:12:36;;;;;;;;;;;24.70;45.30;;;;;;1532975;76;1154;-63
2021/08/02 08:14:38;;;;;;;;;;;24.80;45.20;;;;;;1528616;77;723;-62
2021/08/02 08:16:40;;;;;;;;;;;24.70;45.10;;;;;;1527568;76;716;-63
2021/08/02 08:18:42;;;;;;;;;;;24.70;45.00;;;;;;1528296;76;728;-63
2021/08/02 08:20:43;;;;;;;;;;;24.80;45.00;;;;;;1522496;76;655;-63
2021/08/02 08:22:45;;;;;;;;;;;24.80;44.90;;;;;;1524033;76;1948;-63
2021/08/02 08:24:49;;;;;;;;;;;24.80;44.60;;;;;;1534315;76;758;-63
2021/08/02 08:26:51;;;;;;;;;;;24.80;44.40;;;;;;1539765;76;1754;-63
2021/08/02 08:28:53;;;;;;;;;;;24.80;44.20;;;;;;1530372;76;706;-63
2021/08/02 08:30:54;;;;;;;;;;;24.80;43.80;;;;;;1529956;76;755;-62
2021/08/02 08:32:56;;;;;;;;;;;24.80;43.70;;;;;;1522362;76;1180;-63
2021/08/02 08:34:58;;;;;;;;;;;24.70;43.60;;;;;;1534732;76;566;-63
2021/08/02 08:37:00;;;;;;;;;;;24.80;43.60;;;;;;1522124;76;801;-62
2021/08/02 08:39:03;;;;;;;;;;;24.80;43.50;;;;;;1534600;76;734;-63
2021/08/02 08:41:05;;;;;;;;;;;24.80;43.40;;;;;;1525753;76;875;-63
2021/08/02 08:43:07;;;;;;;;;;;24.70;43.40;;;;;;1530957;76;1942;-63
2021/08/02 08:45:09;;;;;;;;;;;24.70;43.30;;;;;;1525558;76;787;-63
2021/08/02 08:47:11;;;;;;;;;;;24.70;43.40;;;;;;1521394;76;684;-63
2021/08/02 08:49:13;;;;;;;;;;;24.60;43.30;;;;;;1528013;76;725;-63
2021/08/02 08:51:15;;;;;;;;;;;24.60;43.30;;;;;;1517896;76;733;-63
2021/08/02 08:53:18;;;;;;;;;;;24.70;43.50;;;;;;1523391;76;1151;-63
2021/08/02 08:55:20;;;;;;;;;;;24.70;43.60;;;;;;1517826;76;756;-62
2021/08/02 08:57:22;;;;;;;;;;;24.60;43.50;;;;;;1515362;77;641;-63
2021/08/02 08:59:24;;;;;;;;;;;24.70;43.70;;;;;;1531226;76;668;-62
2021/08/02 09:01:29;;;;;;;;;;;24.70;43.70;;;;;;1524696;76;789;-63
2021/08/02 09:03:31;;;;;;;;;;;24.70;43.70;;;;;;1521540;76;1949;-63
2021/08/02 09:05:33;;;;;;;;;;;24.60;43.40;;;;;;1509982;76;710;-63
2021/08/02 09:07:39;;;;;;;;;;;24.80;43.50;;;;;;1517641;77;806;-62
2021/08/02 09:09:41;;;;;;;;;;;24.70;43.40;;;;;;1526310;76;721;-62
2021/08/02 09:11:43;;;;;;;;;;;24.70;43.50;;;;;;1521240;76;771;-62
2021/08/02 09:13:45;;;;;;;;;;;24.60;43.30;;;;;;1526333;76;1168;-63
2021/08/02 09:15:47;;;;;;;;;;;24.70;43.50;;;;;;1528182;76;757;-63
2021/08/02 09:17:51;;;;;;;;;;;24.70;43.50;;;;;;1531767;76;821;-63
2021/08/02 09:19:53;;;;;;;;;;;24.70;43.40;;;;;;1532311;76;723;-63
2021/08/02 09:21:55;;;;;;;;;;;24.60;42.80;;;;;;1532131;76;1149;-62
2021/08/02 09:23:57;;;;;;;;;;;24.70;43.20;;;;;;1524264;77;1934;-63
2021/08/02 09:26:01;;;;;;;;;;;24.50;43.20;;;;;;1536634;76;915;-63
2021/08/02 09:28:13;;;;;;;;;;;24.60;43.30;;;;;;1523263;76;713;-63
2021/08/02 09:30:16;;;;;;;;;;;24.60;43.40;;;;;;1533919;76;726;-62
2021/08/02 09:32:17;;;;;;;;;;;24.50;43.50;;;;;;1518267;76;1122;-63
2021/08/02 09:34:22;;;;;;;;;;;24.50;43.60;;;;;;1526453;76;948;-63
2021/08/02 09:36:23;;;;;;;;;;;24.50;43.70;;;;;;1528322;76;1695;-63
2021/08/02 09:38:25;;;;;;;;;;;24.50;43.70;;;;;;1536978;76;775;-63
2021/08/02 09:40:27;;;;;;;;;;;24.50;43.80;;;;;;1526831;76;761;-63
2021/08/02 09:42:29;;;;;;;;;;;24.50;43.80;;;;;;1524336;76;1950;-63
2021/08/02 09:44:31;;;;;;;;;;;24.50;43.90;;;;;;1520438;76;795;-63
2021/08/02 09:46:33;;;;;;;;;;;24.50;43.90;;;;;;1531458;76;782;-63
2021/08/02 09:48:42;;;;;;;;;;;24.40;43.90;;;;;;1525769;76;819;-63
2021/08/02 09:50:45;;;;;;;;;;;24.50;44.20;;;;;;1522423;76;745;-63
2021/08/02 09:52:48;;;;;;;;;;;24.40;44.20;;;;;;1510475;76;1193;-63
2021/08/02 09:54:52;;;;;;;;;;;24.50;44.50;;;;;;1516300;76;1823;-63
2021/08/02 09:56:54;;;;;;;;;;;24.40;44.40;;;;;;1521785;76;2035;-63
2021/08/02 09:58:56;;;;;;;;;;;24.40;44.60;;;;;;1518755;76;1032;-63
2021/08/02 10:00:57;;;;;;;;;;;24.50;44.80;;;;;;1524177;76;731;-63
2021/08/02 10:02:59;;;;;;;;;;;24.40;44.80;;;;;;1527405;76;1924;-63
2021/08/02 10:05:01;;;;;;;;;;;24.40;44.90;;;;;;1533112;76;895;-63
2021/08/02 10:07:07;;;;;;;;;;;24.50;45.10;;;;;;1525402;76;761;-63
2021/08/02 10:09:08;;;;;;;;;;;24.40;45.10;;;;;;1535310;76;1687;-64
2021/08/02 10:11:10;;;;;;;;;;;24.40;45.20;;;;;;1506387;77;1353;-64
2021/08/02 10:13:12;;;;;;;;;;;24.40;45.30;;;;;;1524598;76;1159;-64
2021/08/02 10:15:15;;;;;;;;;;;24.40;45.50;;;;;;1494957;78;1186;-64
2021/08/02 10:17:17;;;;;;;;;;;24.40;45.50;;;;;;1541287;76;811;-64
2021/08/02 10:19:19;;;;;;;;;;;24.30;45.60;;;;;;1539097;76;757;-64
2021/08/02 10:21:21;;;;;;;;;;;24.40;45.60;;;;;;1548023;76;987;-64
2021/08/02 10:23:24;;;;;;;;;;;24.40;45.70;;;;;;1540153;76;1938;-64
2021/08/02 10:25:36;;;;;;;;;;;24.30;45.60;;;;;;1541356;76;781;-64
2021/08/02 10:27:39;;;;;;;;;;;24.30;45.70;;;;;;1532219;76;962;-64
2021/08/02 10:29:42;;;;;;;;;;;24.30;45.70;;;;;;1530369;76;767;-64
2021/08/02 10:31:48;;;;;;;;;;;24.30;45.90;;;;;;1521327;76;707;-64
2021/08/02 10:33:50;;;;;;;;;;;24.30;45.90;;;;;;1528061;76;1109;-63
2021/08/02 10:35:51;;;;;;;;;;;24.20;45.80;;;;;;1528488;76;717;-64
2021/08/02 10:37:55;;;;;;;;;;;24.20;46.00;;;;;;1536311;76;684;-64
2021/08/02 10:40:07;;;;;;;;;;;24.30;46.30;;;;;;1533088;76;2228;-64
2021/08/02 10:42:09;;;;;;;;;;;24.20;46.10;;;;;;1526836;76;1160;-64
2021/08/02 10:44:13;;;;;;;;;;;24.20;46.30;;;;;;1531621;76;1927;-64
2021/08/02 10:46:16;;;;;;;;;;;24.20;46.40;;;;;;1527147;76;735;-63
2021/08/02 10:48:25;;;;;;;;;;;24.20;46.50;;;;;;1548911;76;596;-64
2021/08/02 10:50:27;;;;;;;;;;;24.20;46.70;;;;;;1535621;76;724;-64
2021/08/02 10:52:29;;;;;;;;;;;24.20;46.80;;;;;;1532609;76;1160;-64
2021/08/02 10:54:38;;;;;;;;;;;24.20;46.90;;;;;;1528389;76;703;-63
2021/08/02 10:56:40;;;;;;;;;;;24.20;47.20;;;;;;1531186;76;715;-64
2021/08/02 10:58:43;;;;;;;;;;;24.20;47.10;;;;;;1535603;76;775;-64
2021/08/02 11:00:46;;;;;;;;;;;24.20;47.30;;;;;;1547960;76;745;-64
2021/08/02 11:02:52;;;;;;;;;;;24.20;47.30;;;;;;1549613;76;1949;-64
2021/08/02 11:04:54;;;;;;;;;;;24.20;47.40;;;;;;1535339;76;1805;-63
2021/08/02 11:06:56;;;;;;;;;;;24.20;47.30;;;;;;1541251;76;858;-63
2021/08/02 11:08:58;;;;;;;;;;;24.20;47.40;;;;;;1539800;76;701;-63
2021/08/02 11:11:02;;;;;;;;;;;24.20;47.30;;;;;;1528374;76;719;-63
2021/08/02 11:13:04;;;;;;;;;;;24.20;47.30;;;;;;1543411;74;1167;-63
2021/08/02 11:15:06;;;;;;;;;;;24.30;47.50;;;;;;1538817;76;761;-63
2021/08/02 11:17:08;;;;;;;;;;;24.20;47.30;;;;;;1538813;76;656;-63
2021/08/02 11:19:23;;;;;;;;;;;24.30;47.30;;;;;;1507167;77;1126;-63
2021/08/02 11:21:26;;;;;;;;;;;24.20;47.20;;;;;;1540432;76;806;-63
2021/08/02 11:23:37;;;;;;;;;;;24.20;47.20;;;;;;1534699;76;1928;-62
2021/08/02 11:25:38;;;;;;;;;;;24.20;47.00;;;;;;1537982;76;771;-63
2021/08/02 11:27:42;;;;;;;;;;;24.30;47.20;;;;;;1541276;76;706;-62
2021/08/02 11:29:45;;;;;;;;;;;24.30;47.20;;;;;;1534499;76;1918;-63
2021/08/02 11:32:00;;;;;;;;;;;24.30;47.10;;;;;;1538221;76;784;-62
2021/08/02 11:34:02;;;;;;;;;;;24.30;47.70;;;;;;1537972;76;796;-62
2021/08/02 11:36:04;;;;;;;;;;;24.30;47.50;;;;;;1542381;76;759;-62
2021/08/02 11:38:06;;;;;;;;;;;24.30;47.60;;;;;;1537673;76;1020;-63
2021/08/02 11:40:08;;;;;;;;;;;24.30;47.60;;;;;;1535230;76;766;-62
2021/08/02 11:42:11;;;;;;;;;;;24.40;47.60;;;;;;1541348;76;1138;-63
2021/08/02 11:44:13;;;;;;;;;;;24.30;47.40;;;;;;1537241;75;1935;-62
2021/08/02 11:46:14;;;;;;;;;;;24.30;47.30;;;;;;1532257;75;734;-62
2021/08/02 11:48:17;;;;;;;;;;;24.30;47.30;;;;;;1539832;76;773;-63
2021/08/02 11:50:19;;;;;;;;;;;24.30;47.40;;;;;;1527410;76;804;-62
2021/08/02 11:52:22;;;;;;;;;;;24.30;47.40;;;;;;1536171;76;1201;-62
2021/08/02 11:54:24;;;;;;;;;;;24.30;47.30;;;;;;1532403;76;743;-61
2021/08/02 11:56:32;;;;;;;;;;;24.20;47.10;;;;;;1536575;76;787;-61
2021/08/02 11:58:38;;;;;;;;;;;24.20;47.20;;;;;;1541621;76;758;-61
2021/08/02 12:00:40;;;;;;;;;;;24.30;47.30;;;;;;1542798;76;634;-61
2021/08/02 12:02:42;;;;;;;;;;;24.20;46.90;;;;;;1536100;76;1138;-61
2021/08/02 12:04:45;;;;;;;;;;;24.30;47.10;;;;;;1546157;76;1935;-61
2021/08/02 12:06:56;;;;;;;;;;;24.30;47.10;;;;;;1532520;76;779;-61
2021/08/02 12:08:58;;;;;;;;;;;24.20;47.00;;;;;;1537653;76;725;-61
2021/08/02 12:11:01;;;;;;;;;;;24.20;47.10;;;;;;1534211;76;681;-61
2021/08/02 12:13:04;;;;;;;;;;;24.20;47.10;;;;;;1538209;75;1145;-61